Time;durP1;ratioP1;P1;durP2;ratioP2;P2;SDS_P1;SDS_P2;PMS_P1;PMS_P2;Temp;Humidity;BMP_temperature;BMP_pressure;BME280_temperature;BME280_humidity;BME280_pressure;Samples;Min_cycle;Max_cycle;Signal;HPM_P1;HPM_P2
2023/09/21 00:03:21;;;;;;;16.75;10.90;;;;;;;17.39;100.00;100616.53;10462996;28;20052;-80
2023/09/21 00:08:24;;;;;;;12.10;10.40;;;;;;;17.32;100.00;100613.84;10461839;28;20456;-80
2023/09/21 00:13:28;;;;;;;16.63;9.85;;;;;;;16.89;100.00;100532.84;10443706;28;20451;-81
2023/09/21 00:18:29;;;;;;;;;;;;;;;18.28;100.00;100728.16;10460276;28;20115;-80
2023/09/21 00:23:31;;;;;;;13.85;9.85;;;;;;;17.35;100.00;100593.81;10460801;28;20354;-80
2023/09/21 00:28:32;;;;;;;13.68;10.23;;;;;;;18.19;100.00;100738.28;10461374;28;20107;-79
2023/09/21 00:33:36;;;;;;;15.35;10.52;;;;;;;17.38;100.00;100604.13;10442828;28;20103;-79
2023/09/21 00:38:37;;;;;;;13.82;10.10;;;;;;;17.61;100.00;100644.00;10460663;28;20094;-79
2023/09/21 00:43:39;;;;;;;14.07;10.13;;;;;;;17.86;100.00;100681.00;10442550;28;20136;-81
2023/09/21 00:48:42;;;;;;;11.98;10.57;;;;;;;17.97;100.00;100689.28;10460296;28;20041;-81
2023/09/21 00:53:45;;;;;;;16.50;10.20;;;;;;;18.27;100.00;100728.34;10441452;28;20049;-79
2023/09/21 00:58:53;;;;;;;14.17;10.90;;;;;;;17.38;100.00;100596.09;10447462;28;20060;-81
2023/09/21 01:03:55;;;;;;;12.80;10.60;;;;;;;18.08;100.00;100706.66;10459181;28;20433;-81
2023/09/21 01:08:56;;;;;;;16.30;10.43;;;;;;;18.13;100.00;100709.53;10458332;28;20143;-81
2023/09/21 01:13:57;;;;;;;12.57;10.20;;;;;;;17.84;100.00;100670.47;10459604;28;20143;-81
2023/09/21 01:19:16;;;;;;;16.40;10.85;;;;;;;17.99;100.00;100702.53;10457850;28;20045;-83
2023/09/21 01:24:22;;;;;;;14.10;11.60;;;;;;;17.86;100.00;100689.94;10459187;28;20132;-82
2023/09/21 01:29:23;;;;;;;14.95;10.18;;;;;;;18.05;100.00;100715.13;10457360;28;20048;-82
2023/09/21 01:34:23;;;;;;;15.38;11.18;;;;;;;17.65;100.00;100644.41;10457980;28;20049;-83
2023/09/21 01:39:24;;;;;;;11.70;10.23;;;;;;;18.32;100.00;100758.94;10457857;28;20060;-81
2023/09/21 01:44:25;;;;;;;13.18;9.77;;;;;;;17.89;100.00;100692.19;10458945;28;20539;-79
2023/09/21 01:49:26;;;;;;;11.93;10.30;;;;;;;17.74;100.00;100668.19;10457903;28;20048;-81
2023/09/21 01:54:27;;;;;;;11.85;10.10;;;;;;;17.79;100.00;100681.03;10458163;28;20504;-81
2023/09/21 01:59:28;;;;;;;19.33;10.02;;;;;;;18.30;100.00;100776.31;10464264;28;20052;-81
2023/09/21 02:04:31;;;;;;;12.65;9.98;;;;;;;17.22;100.00;100620.63;10465350;28;20650;-82
2023/09/21 02:09:34;;;;;;;13.38;10.20;;;;;;;17.57;100.00;100672.31;10462889;28;20057;-81
2023/09/21 02:14:35;;;;;;;17.15;10.15;;;;;;;17.99;100.00;100754.41;10439167;28;20056;-81
2023/09/21 02:19:37;;;;;;;22.15;10.48;;;;;;;18.03;100.00;100763.72;10466960;28;20060;-80
2023/09/21 02:24:38;;;;;;;11.70;10.48;;;;;;;17.28;100.00;100663.59;10496081;28;20090;-81
2023/09/21 02:29:44;;;;;;;18.67;10.23;;;;;;;17.61;100.00;100711.16;10497892;28;20060;-81
2023/09/21 02:34:48;;;;;;;15.88;9.43;;;;;;;16.69;100.00;100561.47;10464621;28;20049;-80
2023/09/21 02:39:51;;;;;;;14.40;9.80;;;;;;;17.07;100.00;100623.50;10439033;28;20049;-79
2023/09/21 02:44:55;;;;;;;26.38;9.95;;;;;;;17.13;100.00;100648.72;10456211;28;20044;-80
2023/09/21 02:49:56;;;;;;;50.33;10.23;;;;;;;17.82;100.00;100746.97;10460845;28;20049;-78
2023/09/21 02:54:58;;;;;;;12.85;9.07;;;;;;;17.46;100.00;100702.47;10455908;28;20056;-77
2023/09/21 03:00:07;;;;;;;12.70;9.13;;;;;;;17.85;100.00;100792.25;10454654;28;20174;-77
2023/09/21 03:05:11;;;;;;;14.20;9.15;;;;;;;17.07;100.00;100685.25;10455254;28;20045;-77
2023/09/21 03:10:13;;;;;;;16.48;9.32;;;;;;;17.53;100.00;100767.78;10454245;28;20463;-77
2023/09/21 03:15:18;;;;;;;12.63;8.80;;;;;;;17.56;100.00;100780.81;10454341;28;20052;-76
2023/09/21 03:25:27;;;;;;;21.23;9.35;;;;;;;17.63;100.00;100788.88;10461717;28;20049;-89
2023/09/21 03:30:28;;;;;;;10.40;7.93;;;;;;;17.44;100.00;100745.66;10454325;28;20071;-74
2023/09/21 03:35:29;;;;;;;10.48;8.38;;;;;;;17.86;100.00;100804.63;10455054;28;20053;-81
2023/09/21 03:40:30;;;;;;;12.23;7.93;;;;;;;18.04;100.00;100818.31;10454298;28;20064;-87
2023/09/21 03:45:31;;;;;;;12.30;8.45;;;;;;;18.18;100.00;100800.31;10454432;28;20056;-74
2023/09/21 03:50:32;;;;;;;9.25;7.45;;;;;;;18.06;100.00;100737.47;10453843;28;20060;-84
2023/09/21 03:55:34;;;;;;;11.75;7.35;;;;;;;18.44;100.00;100740.31;10454265;28;20056;-76
2023/09/21 04:05:37;;;;;;;8.60;7.45;;;;;;;18.79;100.00;100778.56;10452229;28;20057;-73
2023/09/21 04:10:40;;;;;;;14.95;7.25;;;;;;;18.74;100.00;100801.75;10453583;28;20127;-75
2023/09/21 04:15:41;;;;;;;8.00;6.80;;;;;;;18.94;100.00;100821.38;10453637;28;20057;-76
2023/09/21 04:20:44;;;;;;;8.10;6.18;;;;;;;19.96;100.00;100832.31;10453845;28;20045;-74
2023/09/21 04:25:47;;;;;;;8.13;5.30;;;;;;;20.15;98.26;100781.97;10453240;28;20103;-77
2023/09/21 04:30:48;;;;;;;7.53;5.85;;;;;;;19.52;98.03;100750.47;10459554;28;20087;-81
2023/09/21 04:35:48;;;;;;;11.60;5.90;;;;;;;19.19;98.33;100731.78;10453981;28;20076;-78
2023/09/21 04:40:51;;;;;;;6.88;5.93;;;;;;;19.71;98.60;100819.59;10463548;28;20045;-80
2023/09/21 04:45:51;;;;;;;8.23;5.40;;;;;;;19.71;98.01;100783.75;10461258;28;20092;-79
2023/09/21 04:50:52;;;;;;;9.90;5.40;;;;;;;20.15;96.99;100823.25;10459955;28;20122;-79
2023/09/21 04:55:53;;;;;;;12.55;5.25;;;;;;;20.36;95.64;100832.84;10459846;28;20057;-79
2023/09/21 05:00:54;;;;;;;11.27;5.13;;;;;;;20.46;94.63;100811.59;10460088;28;20052;-80
2023/09/21 05:05:54;;;;;;;9.48;5.13;;;;;;;21.11;91.15;100810.28;10459393;28;20045;-79
2023/09/21 05:10:55;;;;;;;6.93;5.00;;;;;;;21.13;88.58;100755.00;10459929;28;20052;-77
2023/09/21 05:15:56;;;;;;;14.65;5.05;;;;;;;21.55;88.45;100827.25;10459848;28;20089;-79
2023/09/21 05:20:56;;;;;;;7.00;4.57;;;;;;;21.55;88.31;100843.47;10459262;28;20051;-79
2023/09/21 05:25:57;;;;;;;7.10;4.97;;;;;;;21.52;86.78;100771.75;10441442;28;20386;-80
2023/09/21 05:30:58;;;;;;;11.18;4.40;;;;;;;21.75;86.43;100835.09;10440472;28;20386;-78
2023/09/21 05:36:04;;;;;;;7.80;4.43;;;;;;;21.88;85.53;100838.41;10441253;28;20067;-79
2023/09/21 05:41:06;;;;;;;16.83;5.30;;;;;;;21.79;85.00;100783.00;10456976;28;20051;-80
2023/09/21 05:46:07;;;;;;;6.40;4.25;;;;;;;22.50;83.44;100839.97;10458150;28;20060;-81
2023/09/21 05:51:10;;;;;;;13.50;4.70;;;;;;;22.36;82.62;100782.50;10457532;28;20056;-79
2023/09/21 05:56:11;;;;;;;9.57;4.10;;;;;;;22.17;81.83;100725.00;10457585;28;20068;-79
2023/09/21 06:01:13;;;;;;;7.35;4.15;;;;;;;22.78;80.77;100814.88;10440166;28;20279;-79
2023/09/21 06:06:14;;;;;;;12.98;4.45;;;;;;;22.67;80.16;100781.31;10456949;28;20551;-80
2023/09/21 06:11:15;;;;;;;9.43;3.60;;;;;;;23.50;77.84;100827.22;10457406;28;20053;-78
2023/09/21 06:16:16;;;;;;;9.68;4.00;;;;;;;23.44;76.39;100772.88;10456660;28;20048;-81
2023/09/21 06:21:17;;;;;;;9.25;3.90;;;;;;;23.55;75.84;100822.72;10457121;28;20045;-81
2023/09/21 06:26:18;;;;;;;19.08;4.35;;;;;;;23.10;76.17;100758.41;10456198;28;20425;-80
2023/09/21 06:31:22;;;;;;;8.25;3.80;;;;;;;23.54;75.97;100814.81;10456393;28;20049;-79
2023/09/21 06:36:24;;;;;;;9.18;3.72;;;;;;;23.38;76.04;100821.84;10456377;28;20051;-82
2023/09/21 06:41:26;;;;;;;5.95;3.72;;;;;;;23.85;74.28;100818.94;10456704;28;20080;-78
2023/09/21 06:46:26;;;;;;;7.20;3.50;;;;;;;24.21;72.15;100812.22;10456853;28;20044;-79
2023/09/21 06:51:27;;;;;;;10.20;3.55;;;;;;;23.71;72.10;100788.59;10454726;28;20053;-78
2023/09/21 06:56:29;;;;;;;17.13;3.60;;;;;;;23.36;71.48;100789.56;10437581;28;20052;-77
2023/09/21 07:01:32;;;;;;;11.18;4.15;;;;;;;23.29;70.94;100760.94;10454873;28;20049;-80
2023/09/21 07:06:32;;;;;;;23.50;10.65;;;;;;;23.79;70.94;100822.63;10455468;28;20102;-80
2023/09/21 07:11:33;;;;;;;17.73;11.52;;;;;;;23.54;70.06;100777.66;10455095;28;20075;-80
2023/09/21 07:16:34;;;;;;;8.02;3.92;;;;;;;23.96;69.24;100788.22;10454370;28;20106;-81
2023/09/21 07:21:35;;;;;;;18.70;4.50;;;;;;;24.66;68.02;100824.06;10454925;28;20045;-82
2023/09/21 07:26:35;;;;;;;8.35;3.47;;;;;;;24.53;67.66;100787.19;10454088;28;20517;-78
2023/09/21 07:31:36;;;;;;;10.27;3.30;;;;;;;24.68;66.47;100768.41;10454915;28;20059;-77
2023/09/21 07:36:38;;;;;;;6.50;2.90;;;;;;;24.79;65.09;100764.72;10453805;28;20067;-80
2023/09/21 07:41:41;;;;;;;8.77;3.20;;;;;;;24.34;64.34;100667.97;10436087;28;20509;-83
2023/09/21 07:46:42;;;;;;;10.68;3.30;;;;;;;24.86;64.12;100775.44;10454335;28;20045;-78
2023/09/21 07:51:43;;;;;;;6.43;3.05;;;;;;;24.12;64.88;100752.09;10436791;28;20468;-81
2023/09/21 07:56:46;;;;;;;7.80;3.42;;;;;;;24.37;64.90;100727.19;10453893;28;20086;-79
2023/09/21 08:01:48;;;;;;;10.37;3.00;;;;;;;24.71;62.56;100671.97;10454047;28;20045;-78
2023/09/21 08:06:49;;;;;;;16.60;3.70;;;;;;;25.23;62.09;100775.63;10462269;28;20084;-79
2023/09/21 08:11:51;;;;;;;11.85;3.50;;;;;;;25.53;61.93;100777.03;10461589;28;20072;-81
2023/09/21 08:16:53;;;;;;;11.95;3.85;;;;;;;24.71;60.96;100680.13;10461611;28;20504;-82
2023/09/21 08:21:55;;;;;;;18.07;3.90;;;;;;;25.69;60.78;100764.38;10461655;28;20049;-79
2023/09/21 08:26:56;;;;;;;10.25;3.35;;;;;;;25.68;59.52;100702.91;10461607;28;20420;-80
2023/09/21 08:31:57;;;;;;;23.10;3.60;;;;;;;25.96;58.68;100699.88;10461270;28;20053;-80
2023/09/21 08:36:58;;;;;;;8.05;3.67;;;;;;;26.69;57.90;100770.06;10460888;28;20049;-79
2023/09/21 08:42:00;;;;;;;11.25;2.88;;;;;;;26.50;57.87;100768.88;10460847;28;20511;-79
2023/09/21 08:47:01;;;;;;;9.20;3.35;;;;;;;26.04;58.11;100771.25;10459429;28;20145;-81
2023/09/21 08:52:05;;;;;;;13.05;3.47;;;;;;;24.96;59.45;100712.22;10459923;28;20049;-80
2023/09/21 08:57:09;;;;;;;9.80;3.13;;;;;;;25.43;59.23;100776.94;10460273;28;20483;-82
2023/09/21 09:02:12;;;;;;;8.25;3.50;;;;;;;25.21;59.64;100714.44;10460155;28;20053;-79
2023/09/21 09:07:13;;;;;;;;;;;;;;;26.47;56.60;100759.28;10442529;28;20095;-79
2023/09/21 09:12:21;;;;;;;11.02;3.28;;;;;;;26.28;56.22;100774.41;10459115;28;19963;-78
2023/09/21 09:17:28;;;;;;;10.43;3.17;;;;;;;25.87;57.81;100761.31;10458748;28;20094;-79
2023/09/21 09:22:31;;;;;;;8.63;3.42;;;;;;;25.82;57.76;100765.91;10441594;28;20106;-79
2023/09/21 09:27:33;;;;;;;10.38;3.05;;;;;;;25.63;57.53;100757.25;10459054;28;20049;-80
2023/09/21 09:32:41;;;;;;;10.43;3.10;;;;;;;25.45;57.49;100753.00;10459158;28;20520;-80
2023/09/21 09:37:47;;;;;;;7.95;2.75;;;;;;;25.37;57.21;100761.63;10457924;28;20076;-80
2023/09/21 09:42:48;;;;;;;9.63;3.40;;;;;;;24.82;58.12;100728.09;10457966;28;20394;-80
2023/09/21 09:48:01;;;;;;;7.60;3.10;;;;;;;25.10;56.65;100716.19;10458480;28;20402;-80
2023/09/21 09:53:10;;;;;;;8.60;3.42;;;;;;;25.58;56.28;100691.94;10439578;28;20049;-80
2023/09/21 09:58:13;;;;;;;8.85;3.15;;;;;;;25.30;56.85;100703.91;10457077;28;20114;-79
2023/09/21 10:03:17;;;;;;;7.10;3.17;;;;;;;25.24;55.81;100613.31;10457828;28;20497;-81
2023/09/21 10:08:21;;;;;;;10.63;3.27;;;;;;;26.66;54.07;100746.06;10457023;28;20390;-79
2023/09/21 10:13:26;;;;;;;8.45;3.08;;;;;;;26.47;52.55;100721.13;10457429;28;20053;-79
2023/09/21 10:18:29;;;;;;;10.45;3.20;;;;;;;26.94;52.64;100730.38;10456560;28;20049;-80
2023/09/21 10:23:33;;;;;;;5.15;2.50;;;;;;;27.14;51.74;100727.72;10456383;28;20531;-80
2023/09/21 10:28:39;;;;;;;5.68;2.85;;;;;;;26.98;51.34;100675.06;10455675;28;20041;-80
2023/09/21 10:33:52;;;;;;;19.65;4.53;;;;;;;27.59;51.03;100723.44;10438703;28;20056;-79
2023/09/21 10:39:05;;;;;;;10.25;3.05;;;;;;;27.24;50.73;100725.03;10456301;28;20052;-80
2023/09/21 10:44:07;;;;;;;7.35;2.67;;;;;;;26.02;51.85;100665.34;10456525;28;20049;-80
2023/09/21 10:49:16;;;;;;;11.38;3.17;;;;;;;25.73;52.21;100657.50;10456432;28;20416;-78
2023/09/21 10:54:17;;;;;;;7.28;2.75;;;;;;;25.45;52.86;100655.91;10455741;28;20447;-79
2023/09/21 10:59:18;;;;;;;9.35;2.97;;;;;;;25.22;53.65;100651.66;10455763;28;20049;-79
2023/09/21 11:04:19;;;;;;;6.95;2.70;;;;;;;24.72;54.04;100597.56;10438093;28;20083;-79
2023/09/21 11:09:20;;;;;;;22.13;3.25;;;;;;;25.34;54.52;100692.28;10455283;28;20501;-79
2023/09/21 11:14:22;;;;;;;7.00;2.47;;;;;;;25.12;53.87;100626.22;10454987;28;20059;-78
2023/09/21 11:19:23;;;;;;;8.45;2.83;;;;;;;25.60;54.78;100684.31;10437089;28;20075;-79
2023/09/21 11:24:24;;;;;;;7.57;3.10;;;;;;;26.06;54.07;100676.53;10455526;28;20131;-78
2023/09/21 11:29:29;;;;;;;7.30;3.03;;;;;;;26.10;53.68;100688.53;10454049;28;20057;-79
2023/09/21 11:34:29;;;;;;;14.77;3.17;;;;;;;26.04;53.43;100640.59;10454526;28;20140;-80
2023/09/21 11:39:31;;;;;;;11.85;3.10;;;;;;;26.74;52.25;100655.59;10454397;28;20136;-78
2023/09/21 11:44:33;;;;;;;8.95;2.90;;;;;;;26.71;51.68;100612.53;10454221;28;20055;-80
2023/09/21 11:49:42;;;;;;;5.18;2.53;;;;;;;27.09;51.51;100645.88;10436046;28;20060;-80
2023/09/21 11:54:43;;;;;;;6.97;2.67;;;;;;;27.28;51.26;100660.69;10454117;28;20053;-79
2023/09/21 11:59:44;;;;;;;9.40;2.70;;;;;;;26.52;52.25;100666.72;10454316;28;20061;-79
2023/09/21 12:04:45;;;;;;;9.98;3.08;;;;;;;26.05;53.47;100670.25;10453724;28;20513;-79
2023/09/21 12:09:46;;;;;;;9.65;2.50;;;;;;;25.69;52.78;100628.34;10453309;28;20045;-80
2023/09/21 12:14:46;;;;;;;8.90;3.10;;;;;;;25.53;53.52;100632.03;10454016;28;20143;-81
2023/09/21 12:19:47;;;;;;;15.13;2.90;;;;;;;25.34;53.52;100580.78;10451877;28;20171;-83
2023/09/21 12:24:48;;;;;;;6.55;2.53;;;;;;;25.85;53.96;100651.09;10468887;28;20053;-79
2023/09/21 12:29:52;;;;;;;7.15;2.70;;;;;;;25.85;54.29;100656.53;10463504;28;20056;-82
2023/09/21 12:34:54;;;;;;;10.27;2.55;;;;;;;25.93;52.75;100586.06;10468936;28;20076;-84
2023/09/21 12:39:56;;;;;;;8.93;2.33;;;;;;;25.93;51.32;100544.44;10452646;28;20175;-82
2023/09/21 12:44:57;;;;;;;8.80;2.65;;;;;;;26.16;52.10;100622.13;10464086;28;20049;-84
2023/09/21 12:50:00;;;;;;;6.13;2.45;;;;;;;26.15;52.58;100623.22;10438518;28;20463;-87
2023/09/21 12:55:01;;;;;;;24.73;3.33;;;;;;;26.22;52.67;100626.50;10460045;28;20048;-82
2023/09/21 13:00:17;;;;;;;9.23;2.70;;;;;;;26.33;52.24;100670.97;10492587;28;20135;-82
2023/09/21 13:05:18;;;;;;;6.85;2.47;;;;;;;25.84;52.25;100631.19;10496992;28;20296;-81
2023/09/21 13:10:19;;;;;;;16.15;2.90;;;;;;;25.51;52.82;100581.44;10497900;28;20052;-82
2023/09/21 13:15:19;;;;;;;14.35;3.08;;;;;;;25.86;53.14;100634.47;10498997;28;20048;-81
2023/09/21 13:20:20;;;;;;;14.20;2.78;;;;;;;25.45;53.67;100577.03;10482381;28;20413;-82
2023/09/21 13:25:22;;;;;;;36.90;3.55;;;;;;;25.58;53.92;100619.31;10477616;28;20045;-83
2023/09/21 13:30:22;;;;;;;13.07;2.63;;;;;;;25.79;54.00;100671.97;10472488;28;20060;-85
2023/09/21 13:35:23;;;;;;;15.18;3.17;;;;;;;24.95;53.68;100570.09;10472043;28;20061;-84
2023/09/21 13:40:25;;;;;;;10.70;2.40;;;;;;;24.95;54.59;100589.13;10477981;28;20056;-85
2023/09/21 13:45:26;;;;;;;9.13;2.30;;;;;;;24.97;54.23;100599.72;10479241;28;20075;-85
2023/09/21 13:50:27;;;;;;;27.30;3.00;;;;;;;25.00;55.15;100627.19;10475887;28;20059;-83
2023/09/21 13:55:28;;;;;;;8.93;2.60;;;;;;;25.04;55.50;100658.25;10472323;28;20099;-82
2023/09/21 14:00:30;;;;;;;7.22;2.50;;;;;;;24.86;56.05;100652.31;10472839;28;20052;-82
2023/09/21 14:05:31;;;;;;;11.75;2.83;;;;;;;24.00;56.75;100541.59;10472886;28;20055;-82
2023/09/21 14:10:32;;;;;;;13.68;3.05;;;;;;;24.13;57.21;100576.50;10472499;28;20045;-81
2023/09/21 14:15:33;;;;;;;10.73;2.80;;;;;;;24.38;57.31;100624.88;10456995;28;20083;-83
2023/09/21 14:20:34;;;;;;;8.63;2.42;;;;;;;24.12;57.51;100585.72;10476304;28;20051;-83
2023/09/21 14:25:35;;;;;;;19.70;3.00;;;;;;;24.09;57.05;100608.75;10455583;28;20483;-83
2023/09/21 14:30:35;;;;;;;16.42;2.92;;;;;;;24.31;57.17;100664.94;10457654;28;20052;-82
2023/09/21 14:35:37;;;;;;;30.33;3.90;;;;;;;24.29;57.73;100675.22;10456213;28;20045;-83
2023/09/21 14:40:38;;;;;;;10.68;2.50;;;;;;;23.72;57.64;100610.38;10463574;28;20075;-82
2023/09/21 14:45:45;;;;;;;11.00;2.45;;;;;;;23.15;58.46;100552.53;10477811;28;20052;-84
2023/09/21 14:50:48;;;;;;;7.10;2.53;;;;;;;23.37;58.77;100595.19;10481015;28;20531;-83
2023/09/21 14:55:51;;;;;;;11.63;2.97;;;;;;;23.25;59.18;100603.41;10456414;28;20480;-83
2023/09/21 15:13:00;;;;;;;21.05;3.25;;;;;;;22.39;60.05;100541.16;10485172;28;20099;-82
2023/09/21 15:25:18;;;;;;;12.07;2.60;;;;;;;21.84;61.34;100514.59;10458626;28;20051;-83
2023/09/21 15:31:29;;;;;;;;;;;;;;;;;;;;;
2023/09/21 15:37:08;;;;;;;8.23;2.58;;;;;;;22.95;61.84;100731.84;10401835;28;20056;-87
2023/09/21 15:42:09;;;;;;;14.70;2.95;;;;;;;21.82;62.16;100578.91;10478417;28;20145;-85
2023/09/21 15:47:15;;;;;;;12.10;2.55;;;;;;;21.59;62.27;100568.91;10438839;28;20593;-80
2023/09/21 15:52:19;;;;;;;11.90;2.65;;;;;;;22.15;62.94;100672.13;10462892;28;20055;-87
2023/09/21 16:02:57;;;;;;;16.42;2.80;;;;;;;21.08;62.95;100537.94;10551648;23;19925;-94
2023/09/21 16:08:01;;;;;;;10.05;3.13;;;;;;;21.51;63.51;100620.59;10332693;28;20054;-84
2023/09/21 16:19:43;;;;;;;8.80;2.65;;;;;;;22.09;63.86;100755.06;10353932;28;20057;-80
2023/09/21 16:24:52;;;;;;;8.75;2.85;;;;;;;21.80;64.34;100718.91;10371899;28;20052;-78
2023/09/21 16:29:53;;;;;;;11.85;2.95;;;;;;;21.60;64.26;100716.56;10376964;28;20042;-80
2023/09/21 16:34:54;;;;;;;9.25;2.47;;;;;;;22.06;64.70;100798.81;10373530;28;20061;-74
2023/09/21 16:39:55;;;;;;;13.98;2.90;;;;;;;21.60;64.88;100747.09;10377656;28;20137;-78
2023/09/21 16:44:55;;;;;;;13.15;2.85;;;;;;;21.52;65.18;100754.72;10376803;28;20133;-78
2023/09/21 16:49:56;;;;;;;16.02;3.17;;;;;;;21.75;65.45;100813.47;10374134;28;20054;-73
2023/09/21 16:54:57;;;;;;;15.68;3.13;;;;;;;21.59;66.02;100804.91;10359989;28;20124;-76
2023/09/21 16:59:58;;;;;;;15.85;3.00;;;;;;;21.57;66.15;100822.44;10377482;28;20042;-73
2023/09/21 17:04:59;;;;;;;16.35;3.15;;;;;;;21.25;66.45;100792.06;10374373;28;20077;-81
2023/09/21 17:10:01;;;;;;;32.90;3.35;;;;;;;21.16;67.13;100788.84;10365717;28;20136;-74
2023/09/21 17:15:02;;;;;;;23.65;2.92;;;;;;;20.90;67.80;100757.56;10377277;28;20491;-74
2023/09/21 17:20:05;;;;;;;13.30;2.83;;;;;;;21.24;68.46;100829.06;10377573;28;20058;-74
2023/09/21 17:25:09;;;;;;;8.38;2.47;;;;;;;20.89;69.19;100789.16;10376700;28;20057;-74
2023/09/21 17:30:11;;;;;;;11.13;2.60;;;;;;;21.12;69.66;100837.09;10350532;28;20047;-82
2023/09/21 17:35:12;;;;;;;14.77;3.03;;;;;;;20.64;70.40;100769.47;10336321;28;20065;-84
2023/09/21 17:40:13;;;;;;;13.68;3.28;;;;;;;20.81;70.65;100808.34;10336580;28;20050;-80
2023/09/21 17:45:14;;;;;;;9.60;3.47;;;;;;;20.73;71.32;100805.94;10336159;28;20137;-74
2023/09/21 17:50:16;;;;;;;10.38;2.45;;;;;;;20.73;71.91;100822.13;10336034;28;20073;-77
2023/09/21 17:55:17;;;;;;;10.88;2.90;;;;;;;20.54;72.45;100813.19;10331159;28;20058;-79
2023/09/21 18:00:18;;;;;;;10.90;3.03;;;;;;;20.62;72.88;100837.22;10328896;28;20046;-76
2023/09/21 18:05:19;;;;;;;21.73;3.75;;;;;;;20.38;72.93;100809.16;10331924;28;20054;-76
2023/09/21 18:10:19;;;;;;;11.57;2.90;;;;;;;20.34;72.90;100801.72;10335215;28;20184;-78
2023/09/21 18:15:20;;;;;;;15.55;2.75;;;;;;;20.04;72.82;100772.72;10334015;28;20050;-80
2023/09/21 18:20:23;;;;;;;12.75;3.10;;;;;;;20.37;72.77;100837.19;10334158;28;20054;-78
2023/09/21 18:25:25;;;;;;;17.77;2.90;;;;;;;20.22;72.54;100837.53;10333373;28;20046;-71
2023/09/21 18:30:26;;;;;;;9.30;2.30;;;;;;;19.86;72.49;100788.81;10340155;28;20122;-76
2023/09/21 18:35:27;;;;;;;14.38;2.80;;;;;;;19.79;72.74;100805.88;10337778;28;20054;-73
2023/09/21 18:40:29;;;;;;;14.02;2.75;;;;;;;19.74;72.54;100813.81;10353978;28;20049;-81
2023/09/21 18:45:29;;;;;;;10.13;2.80;;;;;;;19.43;72.82;100771.44;10325299;28;20054;-82
2023/09/21 18:50:30;;;;;;;14.88;2.85;;;;;;;19.75;73.07;100842.41;10333012;28;20053;-81
2023/09/21 18:55:31;;;;;;;11.88;2.75;;;;;;;19.64;73.60;100828.75;10332792;28;20046;-76
2023/09/21 19:00:36;;;;;;;6.38;2.38;;;;;;;19.58;74.02;100841.22;10340598;28;20061;-74
2023/09/21 19:05:37;;;;;;;10.43;2.53;;;;;;;19.58;74.40;100849.31;10337642;28;20054;-74
2023/09/21 19:10:38;;;;;;;7.95;2.90;;;;;;;19.18;75.01;100790.22;10333288;28;20521;-80
2023/09/21 19:15:39;;;;;;;12.38;2.58;;;;;;;19.32;75.65;100818.72;10372263;28;20050;-79
2023/09/21 19:20:40;;;;;;;12.60;2.70;;;;;;;19.23;76.27;100817.31;10372266;28;20069;-85
2023/09/21 19:25:41;;;;;;;8.82;2.72;;;;;;;19.38;77.00;100857.47;10371929;28;20073;-78
2023/09/21 19:30:45;;;;;;;8.98;3.00;;;;;;;19.34;77.71;100867.03;10369912;28;20077;-81
2023/09/21 19:35:46;;;;;;;11.73;3.08;;;;;;;19.33;78.33;100851.91;10372066;28;20184;-80
2023/09/21 19:40:47;;;;;;;9.07;2.97;;;;;;;18.51;78.92;100730.34;10370762;28;20054;-86
2023/09/21 19:45:48;;;;;;;7.03;2.85;;;;;;;19.19;79.85;100839.53;10369027;28;20506;-89
2023/09/21 19:50:51;;;;;;;9.25;3.65;;;;;;;19.09;80.19;100840.81;10363912;28;20053;-88
2023/09/21 19:55:53;;;;;;;14.35;3.28;;;;;;;19.03;80.43;100843.53;10331986;28;20086;-85
2023/09/21 20:00:54;;;;;;;11.45;3.30;;;;;;;18.96;80.78;100838.13;10336148;28;20181;-84
2023/09/21 20:05:55;;;;;;;7.18;3.20;;;;;;;18.58;81.00;100792.25;10339459;28;20089;-83
2023/09/21 20:10:57;;;;;;;12.02;3.00;;;;;;;18.74;81.32;100845.63;10338831;28;20077;-90
2023/09/21 20:15:58;;;;;;;5.18;2.50;;;;;;;18.68;81.67;100846.44;10338809;28;20054;-86
2023/09/21 20:20:59;;;;;;;7.75;2.67;;;;;;;18.57;82.43;100845.19;10338511;28;20460;-84
2023/09/21 20:26:02;;;;;;;8.65;2.90;;;;;;;18.50;83.49;100844.41;10338876;28;20524;-85
2023/09/21 20:31:05;;;;;;;9.90;3.20;;;;;;;18.01;84.75;100784.63;10339691;28;20413;-84
2023/09/21 20:36:06;;;;;;;8.43;3.27;;;;;;;18.42;85.96;100849.97;10338819;28;20050;-85
2023/09/21 20:41:08;;;;;;;7.45;3.03;;;;;;;18.32;88.14;100847.69;10338675;28;20425;-86
2023/09/21 20:46:08;;;;;;;7.18;2.10;;;;;;;18.30;89.42;100832.81;10338575;28;20057;-86
2023/09/21 20:51:09;;;;;;;8.45;2.72;;;;;;;18.35;90.43;100847.28;10320451;28;20042;-85
2023/09/21 20:56:11;;;;;;;6.13;2.88;;;;;;;17.97;91.73;100788.72;10321056;28;20410;-85
2023/09/21 21:01:12;;;;;;;6.65;2.65;;;;;;;18.17;93.01;100839.84;10337626;28;20113;-88
2023/09/21 21:06:13;;;;;;;8.70;2.58;;;;;;;17.79;93.88;100792.00;10337939;28;20116;-87
2023/09/21 21:11:14;;;;;;;6.05;2.53;;;;;;;17.78;94.84;100809.19;10336167;28;20042;-84
2023/09/21 21:16:15;;;;;;;18.15;3.20;;;;;;;18.16;95.44;100858.88;10337401;28;20406;-84
2023/09/21 21:21:16;;;;;;;5.35;2.30;;;;;;;18.15;96.35;100865.28;10337276;28;20065;-84
2023/09/21 21:26:16;;;;;;;11.18;3.45;;;;;;;17.87;97.53;100828.63;10338363;28;20057;-85
2023/09/21 21:31:17;;;;;;;6.85;2.90;;;;;;;18.13;98.50;100870.88;10344174;28;20189;-84
2023/09/21 21:36:18;;;;;;;7.97;3.03;;;;;;;17.73;99.03;100795.50;10337286;28;20055;-86
2023/09/21 21:41:20;;;;;;;7.82;2.70;;;;;;;18.23;100.00;100859.69;10336231;28;20514;-84
2023/09/21 21:46:20;;;;;;;9.38;2.97;;;;;;;18.41;100.00;100872.53;10335504;28;20427;-85
2023/09/21 21:51:21;;;;;;;5.72;2.50;;;;;;;18.59;100.00;100880.81;10318403;28;20164;-83
2023/09/21 21:56:22;;;;;;;7.90;2.67;;;;;;;18.71;100.00;100892.59;10335293;28;20569;-85
2023/09/21 22:01:22;;;;;;;12.82;2.80;;;;;;;18.59;100.00;100869.22;10335362;28;20141;-84
2023/09/21 22:06:25;;;;;;;11.43;3.22;;;;;;;18.53;100.00;100854.75;10335224;28;20470;-85
2023/09/21 22:11:26;;;;;;;10.38;2.90;;;;;;;18.41;100.00;100834.88;10334999;28;20046;-82
2023/09/21 22:16:26;;;;;;;8.55;3.03;;;;;;;18.79;100.00;100886.22;10334284;28;20047;-84
2023/09/21 22:21:27;;;;;;;5.88;2.72;;;;;;;18.67;100.00;100874.41;10333363;28;20066;-88
2023/09/21 22:26:30;;;;;;;10.90;3.10;;;;;;;18.82;100.00;100898.44;10333656;28;20105;-85
2023/09/21 22:31:31;;;;;;;6.72;2.75;;;;;;;18.39;100.00;100827.00;10334570;28;20472;-84
2023/09/21 22:36:31;;;;;;;11.38;2.85;;;;;;;18.68;100.00;100876.06;10333901;28;20104;-85
2023/09/21 22:41:32;;;;;;;8.30;2.85;;;;;;;18.05;100.00;100781.50;10333807;28;20054;-88
2023/09/21 22:46:33;;;;;;;8.90;3.50;;;;;;;18.76;100.00;100885.81;10333043;28;20054;-86
2023/09/21 22:51:33;;;;;;;11.00;3.53;;;;;;;18.66;100.00;100881.63;10333565;28;20490;-88
2023/09/21 22:56:34;;;;;;;6.00;2.80;;;;;;;18.11;100.00;100800.31;10332768;28;20395;-87
2023/09/21 23:01:35;;;;;;;7.70;3.20;;;;;;;18.17;100.00;100817.50;10333066;28;20054;-86
2023/09/21 23:06:36;;;;;;;10.05;3.05;;;;;;;18.51;100.00;100872.13;10333516;28;20062;-87
2023/09/21 23:11:37;;;;;;;6.82;3.25;;;;;;;18.51;100.00;100888.25;10332197;28;20125;-87
2023/09/21 23:16:38;;;;;;;9.10;3.33;;;;;;;18.47;100.00;100888.66;10332343;28;20058;-88
2023/09/21 23:21:38;;;;;;;7.10;3.25;;;;;;;18.43;100.00;100897.38;10332306;28;20525;-88
2023/09/21 23:26:39;;;;;;;6.88;3.15;;;;;;;18.31;100.00;100877.47;10331790;28;20058;-89
2023/09/21 23:31:44;;;;;;;7.82;3.35;;;;;;;18.35;100.00;100892.19;10331734;28;20501;-84
2023/09/21 23:36:46;;;;;;;6.18;3.05;;;;;;;17.82;100.00;100811.47;10331914;28;20046;-87
2023/09/21 23:41:46;;;;;;;8.82;3.40;;;;;;;18.09;100.00;100880.34;10314640;28;20180;-85